createdAt,value
2018-09-04T00:00:44.210Z,55.50
2018-09-04T00:03:12.197Z,57.40
2018-09-04T00:05:40.214Z,80.87
2018-09-04T00:08:09.441Z,61.13
2018-09-04T00:10:39.805Z,44.93
2018-09-04T00:13:08.482Z,43.77
2018-09-04T00:15:37.502Z,50.37
2018-09-04T00:18:06.141Z,41.00
2018-09-04T00:20:35.422Z,39.13
2018-09-04T00:23:04.797Z,42.77
2018-09-04T00:25:32.860Z,45.53
2018-09-04T00:28:01.628Z,38.37
2018-09-04T00:30:30.818Z,55.90
2018-09-04T00:32:59.672Z,43.57
2018-09-04T00:35:27.658Z,43.00
2018-09-04T00:37:56.074Z,45.00
2018-09-04T00:40:24.618Z,52.23
2018-09-04T00:42:53.462Z,45.63
2018-09-04T00:45:21.434Z,45.70
2018-09-04T00:47:50.326Z,51.63
2018-09-04T00:50:18.774Z,50.27
2018-09-04T00:52:48.477Z,51.07
2018-09-04T00:55:17.405Z,54.27
2018-09-04T00:57:46.172Z,60.13
2018-09-04T01:00:15.317Z,60.47
2018-09-04T01:02:46.078Z,66.17
2018-09-04T01:05:14.101Z,66.10
2018-09-04T01:07:42.762Z,67.23
2018-09-04T01:10:12.239Z,69.73
2018-09-04T01:12:40.217Z,68.03
2018-09-04T01:15:08.299Z,83.23
2018-09-04T01:17:37.732Z,72.40
2018-09-04T01:20:05.913Z,63.10
2018-09-04T01:22:33.856Z,60.93
2018-09-04T01:25:02.646Z,54.30
2018-09-04T01:27:30.612Z,54.47
2018-09-04T01:30:00.709Z,54.70
2018-09-04T01:32:28.898Z,54.33
2018-09-04T01:34:58.146Z,47.37
2018-09-04T01:37:26.152Z,56.73
2018-09-04T01:39:54.487Z,48.90
2018-09-04T01:42:23.208Z,52.63
2018-09-04T01:44:51.277Z,46.87
2018-09-04T01:47:20.209Z,59.57
2018-09-04T01:49:48.318Z,51.70
2018-09-04T01:52:16.453Z,48.73
2018-09-04T01:54:45.265Z,55.30
2018-09-04T01:57:13.302Z,57.87
2018-09-04T01:59:41.744Z,52.30
2018-09-04T02:02:10.932Z,47.30
2018-09-04T02:04:42.338Z,50.87
2018-09-04T02:07:10.909Z,51.63
2018-09-04T02:09:39.462Z,53.03
2018-09-04T02:12:08.200Z,56.47
2018-09-04T02:14:36.192Z,60.83
2018-09-04T02:17:05.796Z,71.27
2018-09-04T02:19:34.483Z,57.07
2018-09-04T02:22:04.718Z,56.03
2018-09-04T02:24:34.541Z,62.60
2018-09-04T02:27:03.534Z,58.07
2018-09-04T02:29:32.073Z,56.93
2018-09-04T02:32:01.281Z,56.63
2018-09-04T02:34:30.405Z,58.27
2018-09-04T02:36:59.299Z,57.57
2018-09-04T02:39:28.591Z,63.93
2018-09-04T02:41:57.631Z,57.00
2018-09-04T02:44:25.699Z,48.37
2018-09-04T02:46:53.776Z,59.50
2018-09-04T02:49:21.790Z,58.27
2018-09-04T02:51:50.393Z,51.43
2018-09-04T02:54:18.485Z,47.57
2018-09-04T02:56:46.423Z,49.10
2018-09-04T02:59:15.219Z,52.07
2018-09-04T03:01:43.235Z,48.50
2018-09-04T03:04:11.923Z,43.67
2018-09-04T03:06:41.685Z,41.60
2018-09-04T03:09:10.311Z,39.37
2018-09-04T03:11:38.579Z,45.90
2018-09-04T03:14:07.409Z,39.67
2018-09-04T03:16:35.372Z,43.47
2018-09-04T03:19:04.142Z,50.70
2018-09-04T03:21:32.127Z,41.63
2018-09-04T03:24:00.126Z,43.27
2018-09-04T03:26:29.025Z,44.30
2018-09-04T03:28:58.385Z,39.10
2018-09-04T03:31:28.129Z,46.37
2018-09-04T03:33:56.102Z,53.13
2018-09-04T03:36:24.767Z,46.60
2018-09-04T03:38:53.266Z,47.60
2018-09-04T03:41:21.209Z,46.33
2018-09-04T03:43:49.202Z,46.47
2018-09-04T03:46:19.110Z,45.97
2018-09-04T03:48:48.378Z,53.87
2018-09-04T03:51:18.265Z,52.10
2018-09-04T03:53:46.322Z,39.77
2018-09-04T03:56:15.410Z,38.07
2018-09-04T03:58:45.169Z,40.53
2018-09-04T04:01:13.775Z,41.83
2018-09-04T04:03:43.389Z,36.13
2018-09-04T04:06:11.411Z,35.50
2018-09-04T04:08:41.425Z,41.03
2018-09-04T04:11:10.562Z,39.97
2018-09-04T04:13:38.593Z,41.00
2018-09-04T04:16:07.862Z,37.87
2018-09-04T04:18:37.366Z,44.97
2018-09-04T04:21:08.270Z,42.10
2018-09-04T04:23:36.978Z,41.33
2018-09-04T04:26:05.693Z,42.77
2018-09-04T04:28:33.746Z,42.17
2018-09-04T04:31:01.769Z,39.17
2018-09-04T04:33:29.771Z,39.20
2018-09-04T04:35:57.721Z,41.47
2018-09-04T04:38:25.804Z,42.17
2018-09-04T04:40:53.860Z,38.70
2018-09-04T04:43:21.917Z,40.60
2018-09-04T04:46:21.310Z,36.87
2018-09-04T04:48:50.230Z,43.63
2018-09-04T04:51:18.631Z,40.73
2018-09-04T04:53:47.311Z,42.00
2018-09-04T04:56:16.009Z,43.23
2018-09-04T04:58:43.937Z,39.57
2018-09-04T05:01:12.331Z,42.87
2018-09-04T05:03:40.830Z,40.53
2018-09-04T05:06:09.329Z,41.70
2018-09-04T05:08:40.001Z,33.90
2018-09-04T05:11:09.472Z,35.87
2018-09-04T05:13:37.504Z,34.80
2018-09-04T05:16:07.228Z,28.53
2018-09-04T05:18:35.726Z,29.93
2018-09-04T05:21:03.785Z,34.30
2018-09-04T05:23:32.615Z,29.70
2018-09-04T05:26:01.261Z,27.63
2018-09-04T05:28:29.266Z,27.53
2018-09-04T05:30:57.261Z,26.87
2018-09-04T05:33:55.841Z,24.47
2018-09-04T05:36:23.907Z,28.27
2018-09-04T05:38:51.895Z,28.03
2018-09-04T05:41:19.837Z,27.67
2018-09-04T05:43:50.827Z,28.80
2018-09-04T05:46:55.256Z,32.13
2018-09-04T05:49:28.158Z,26.90
2018-09-04T05:51:56.182Z,28.77
2018-09-04T05:54:24.200Z,26.63
2018-09-04T05:56:52.851Z,27.90
2018-09-04T05:59:21.800Z,24.20
2018-09-04T06:01:49.774Z,25.90
2018-09-04T06:04:18.725Z,24.97
2018-09-04T06:06:46.625Z,32.27
2018-09-04T06:09:16.783Z,26.00
2018-09-04T06:11:45.591Z,25.20
2018-09-04T06:14:15.325Z,23.90
2018-09-04T06:16:44.094Z,23.73
2018-09-04T06:19:12.862Z,20.27
2018-09-04T06:21:45.135Z,23.57
2018-09-04T06:24:13.146Z,24.37
2018-09-04T06:26:41.688Z,25.43
2018-09-04T06:29:10.209Z,25.77
2018-09-04T06:31:38.154Z,26.53
2018-09-04T06:34:06.286Z,24.30
2018-09-04T06:36:34.363Z,25.83
2018-09-04T06:39:02.939Z,22.00
2018-09-04T06:41:31.570Z,23.27
2018-09-04T06:44:00.120Z,20.13
2018-09-04T06:46:28.225Z,25.57
2018-09-04T06:48:57.666Z,25.47
2018-09-04T06:51:25.686Z,22.17
2018-09-04T06:53:54.665Z,23.10
2018-09-04T06:56:22.749Z,21.70
2018-09-04T06:58:51.994Z,23.47
2018-09-04T07:01:21.089Z,21.83
2018-09-04T07:03:49.837Z,24.43
2018-09-04T07:06:17.805Z,25.63
2018-09-04T07:08:45.813Z,21.77
2018-09-04T07:11:13.739Z,22.80
2018-09-04T07:13:41.730Z,21.23
2018-09-04T07:16:10.775Z,25.52
2018-09-04T07:18:38.748Z,19.57
2018-09-04T07:21:07.706Z,28.17
2018-09-04T07:23:36.314Z,23.57
2018-09-04T07:26:05.280Z,26.60
2018-09-04T07:28:33.259Z,22.27
2018-09-04T07:31:03.005Z,22.77
2018-09-04T07:33:32.670Z,25.03
2018-09-04T07:36:02.793Z,21.40
2018-09-04T07:38:30.729Z,19.87
2018-09-04T07:40:58.777Z,20.43
2018-09-04T07:43:43.670Z,20.87
2018-09-04T07:46:11.593Z,24.97
2018-09-04T07:48:40.312Z,23.27
2018-09-04T07:51:08.331Z,22.20
2018-09-04T07:53:36.997Z,19.43
2018-09-04T07:56:05.032Z,19.83
2018-09-04T07:58:36.190Z,22.90
2018-09-04T08:01:04.621Z,19.43
2018-09-04T08:03:33.128Z,19.83
2018-09-04T08:06:02.767Z,22.00
2018-09-04T08:08:32.981Z,18.30
2018-09-04T08:11:01.012Z,19.70
2018-09-04T08:13:33.433Z,22.40
2018-09-04T08:16:04.457Z,22.30
2018-09-04T08:18:32.431Z,25.90
2018-09-04T08:21:00.416Z,21.70
2018-09-04T08:23:29.168Z,23.23
2018-09-04T08:25:57.195Z,25.20
2018-09-04T08:28:27.621Z,22.03
2018-09-04T08:30:55.682Z,24.03
2018-09-04T08:33:26.881Z,23.80
2018-09-04T08:35:57.053Z,24.33
2018-09-04T08:38:25.758Z,24.50
2018-09-04T08:40:57.466Z,20.87
2018-09-04T08:43:25.616Z,22.30
2018-09-04T08:45:54.335Z,21.27
2018-09-04T08:48:22.303Z,22.33
2018-09-04T08:50:51.425Z,23.27
2018-09-04T08:53:23.022Z,21.93
2018-09-04T08:55:51.508Z,20.13
2018-09-04T08:58:19.454Z,20.97
2018-09-04T09:00:47.561Z,22.93
2018-09-04T09:03:17.685Z,21.50
2018-09-04T09:05:47.306Z,22.50
2018-09-04T09:08:17.354Z,21.00
2018-09-04T09:10:46.491Z,20.73
2018-09-04T09:13:16.969Z,22.40
2018-09-04T09:15:47.786Z,22.20
2018-09-04T09:18:18.982Z,22.00
2018-09-04T09:20:47.492Z,20.30
2018-09-04T09:23:17.806Z,20.97
2018-09-04T09:25:47.034Z,21.97
2018-09-04T09:28:17.361Z,24.47
2018-09-04T09:30:48.573Z,19.87
2018-09-04T09:33:16.758Z,21.40
2018-09-04T09:35:44.806Z,22.07
2018-09-04T09:38:13.277Z,20.40
2018-09-04T09:40:41.434Z,21.50
2018-09-04T09:43:10.525Z,25.50
2018-09-04T09:45:39.801Z,20.57
2018-09-04T09:48:10.620Z,22.23
2018-09-04T09:50:40.108Z,25.00
2018-09-04T09:53:08.910Z,23.37
2018-09-04T09:55:36.763Z,22.13
2018-09-04T09:58:06.138Z,22.27
2018-09-04T10:00:39.470Z,22.07
2018-09-04T10:03:13.678Z,23.43
2018-09-04T10:05:44.653Z,26.77
2018-09-04T10:08:13.625Z,23.73
2018-09-04T10:10:41.705Z,23.67
2018-09-04T10:13:12.425Z,23.60
2018-09-04T10:15:41.340Z,26.00
2018-09-04T10:18:10.631Z,24.83
2018-09-04T10:20:39.326Z,26.57
2018-09-04T10:23:08.041Z,24.30
2018-09-04T10:25:35.982Z,26.90
2018-09-04T10:28:05.984Z,26.00
2018-09-04T10:30:35.213Z,26.17
2018-09-04T10:33:03.319Z,27.37
2018-09-04T10:35:32.095Z,26.40
2018-09-04T10:38:03.611Z,27.00
2018-09-04T10:40:40.709Z,29.03
2018-09-04T10:43:08.599Z,26.73
2018-09-04T10:45:42.049Z,28.70
2018-09-04T10:48:16.843Z,28.27
2018-09-04T10:50:44.865Z,26.90
2018-09-04T10:53:12.766Z,25.83
2018-09-04T10:55:40.945Z,25.40
2018-09-04T10:58:09.730Z,21.93
2018-09-04T11:00:38.303Z,22.80
2018-09-04T11:03:08.235Z,21.63
2018-09-04T11:05:37.669Z,22.60
2018-09-04T11:08:05.646Z,24.67
2018-09-04T11:10:33.686Z,22.87
2018-09-04T11:13:02.756Z,22.83
2018-09-04T11:15:30.732Z,25.20
2018-09-04T11:17:58.729Z,23.90
2018-09-04T11:20:28.494Z,24.03
2018-09-04T11:23:00.417Z,21.13
2018-09-04T11:25:28.366Z,24.90
2018-09-04T11:27:56.284Z,25.33
2018-09-04T11:30:24.270Z,26.30
2018-09-04T11:32:52.492Z,22.63
2018-09-04T11:35:20.591Z,23.60
2018-09-04T11:37:48.549Z,23.27
2018-09-04T11:40:19.891Z,22.50
2018-09-04T11:42:47.828Z,23.83
2018-09-04T11:45:15.842Z,22.83
2018-09-04T11:47:43.917Z,26.43
2018-09-04T11:50:12.861Z,19.67
2018-09-04T11:52:41.428Z,22.30
2018-09-04T11:55:09.985Z,20.83
2018-09-04T11:57:38.735Z,20.00
2018-09-04T12:00:08.716Z,19.80
2018-09-04T12:02:38.579Z,21.13
2018-09-04T12:05:06.590Z,19.27
2018-09-04T12:07:35.514Z,17.90
2018-09-04T12:10:07.216Z,19.87
2018-09-04T12:12:35.711Z,20.17
2018-09-04T12:15:03.571Z,17.97
2018-09-04T12:17:31.489Z,18.47
2018-09-04T12:21:09.750Z,16.67
2018-09-04T12:23:37.775Z,17.97
2018-09-04T12:26:10.251Z,16.00
2018-09-04T12:28:39.466Z,16.63
2018-09-04T12:31:09.354Z,15.83
2018-09-04T12:33:38.813Z,15.60
2018-09-04T12:36:07.404Z,21.67
2018-09-04T12:38:38.314Z,17.50
2018-09-04T12:41:11.033Z,15.43
2018-09-04T12:43:38.971Z,14.43
2018-09-04T12:46:07.107Z,17.30
2018-09-04T12:48:35.671Z,20.80
2018-09-04T12:51:03.774Z,13.57
2018-09-04T12:53:32.615Z,13.27
2018-09-04T12:56:00.651Z,13.33
2018-09-04T12:58:29.538Z,13.60
2018-09-04T13:00:58.525Z,13.43
2018-09-04T13:03:28.384Z,15.43
2018-09-04T13:05:56.501Z,16.33
2018-09-04T13:08:26.030Z,15.27
2018-09-04T13:10:54.043Z,15.30
2018-09-04T13:13:22.886Z,12.63
2018-09-04T13:15:54.374Z,15.23
2018-09-04T13:18:22.624Z,15.53
2018-09-04T13:20:50.687Z,13.83
2018-09-04T13:23:21.538Z,13.23
2018-09-04T13:25:49.557Z,13.90
2018-09-04T13:28:18.210Z,19.30
2018-09-04T13:30:46.224Z,16.40
2018-09-04T13:33:14.177Z,12.47
2018-09-04T13:35:42.878Z,16.37
2018-09-04T13:38:10.789Z,13.27
2018-09-04T13:40:40.266Z,15.80
2018-09-04T13:43:08.854Z,15.33
2018-09-04T13:45:36.888Z,16.60
2018-09-04T13:48:07.472Z,18.33
2018-09-04T13:50:39.359Z,16.73
2018-09-04T13:53:09.056Z,16.83
2018-09-04T13:55:37.597Z,15.63
2018-09-04T13:58:07.329Z,14.83
2018-09-04T14:00:39.755Z,18.03
2018-09-04T14:06:22.151Z,20.40
2018-09-04T14:09:04.966Z,18.67
2018-09-04T14:11:33.735Z,15.87
2018-09-04T14:14:04.173Z,14.67
2018-09-04T14:16:43.156Z,16.60
2018-09-04T14:19:03.133Z,13.53
2018-09-04T14:21:36.966Z,18.23
2018-09-04T14:24:06.535Z,14.27
2018-09-04T14:26:34.782Z,14.77
2018-09-04T14:29:06.963Z,18.00
2018-09-04T14:31:34.411Z,15.30
2018-09-04T14:34:19.044Z,13.47
2018-09-04T14:36:48.337Z,17.30
2018-09-04T14:39:17.474Z,31.97
2018-09-04T14:41:49.255Z,15.23
2018-09-04T14:44:18.041Z,15.70
2018-09-04T14:47:07.994Z,16.17
2018-09-04T14:49:43.477Z,21.80
2018-09-04T14:52:29.489Z,20.57
2018-09-04T14:55:08.376Z,17.87
2018-09-04T14:57:40.189Z,18.87
2018-09-04T15:00:09.031Z,19.83
2018-09-04T15:02:40.969Z,19.63
2018-09-04T15:05:09.810Z,16.80
2018-09-04T15:07:41.102Z,18.93
2018-09-04T15:10:09.301Z,17.97
2018-09-04T15:12:43.395Z,16.17
2018-09-04T15:15:46.806Z,20.10
2018-09-04T15:18:15.543Z,23.47
2018-09-04T15:20:45.790Z,18.23
2018-09-04T15:25:58.347Z,17.90
2018-09-04T15:29:13.306Z,28.00
2018-09-04T15:34:55.047Z,17.70
2018-09-04T15:37:25.393Z,15.47
2018-09-04T15:39:54.431Z,15.57
2018-09-04T15:42:23.576Z,16.77
2018-09-04T15:44:53.754Z,16.80
2018-09-04T15:47:30.854Z,15.27
2018-09-04T15:50:00.161Z,14.97
2018-09-04T15:52:32.724Z,15.80
2018-09-04T15:55:00.754Z,17.70
2018-09-04T15:57:46.886Z,15.47
2018-09-04T16:00:49.577Z,16.43
2018-09-04T16:03:22.371Z,15.27
2018-09-04T16:05:51.451Z,19.17
2018-09-04T16:08:22.757Z,14.77
2018-09-04T16:11:10.985Z,14.13
2018-09-04T16:14:05.164Z,14.77
2018-09-04T16:16:55.421Z,14.70
2018-09-04T16:19:59.142Z,17.30
2018-09-04T16:22:35.070Z,14.70
2018-09-04T16:25:04.775Z,14.83
2018-09-04T16:27:37.124Z,16.27
2018-09-04T16:30:14.226Z,15.07
2018-09-04T16:32:59.337Z,17.77
2018-09-04T16:35:44.579Z,18.87
2018-09-04T16:38:14.377Z,18.50
2018-09-04T16:40:43.760Z,16.97
2018-09-04T16:43:20.985Z,15.37
2018-09-04T16:45:50.016Z,14.63
2018-09-04T16:48:22.216Z,13.53
2018-09-04T16:50:56.241Z,29.57
2018-09-04T16:53:26.398Z,14.03
2018-09-04T16:55:55.440Z,14.20
2018-09-04T16:58:24.723Z,14.63
2018-09-04T17:00:55.744Z,16.80
2018-09-04T17:03:29.020Z,14.60
2018-09-04T17:06:13.119Z,12.67
2018-09-04T17:08:48.578Z,15.10
2018-09-04T17:11:22.482Z,14.60
2018-09-04T17:14:19.294Z,16.57
2018-09-04T17:17:14.965Z,15.37
2018-09-04T17:19:47.615Z,14.00
2018-09-04T17:22:19.925Z,14.33
2018-09-04T17:24:51.297Z,17.97
2018-09-04T17:27:20.782Z,16.07
2018-09-04T17:29:53.486Z,16.13
2018-09-04T17:32:25.365Z,15.33
2018-09-04T17:35:13.948Z,16.97
2018-09-04T17:37:58.828Z,16.77
2018-09-04T17:40:30.986Z,16.93
2018-09-04T17:43:00.171Z,19.67
2018-09-04T17:45:36.520Z,17.57
2018-09-04T17:48:06.413Z,16.90
2018-09-04T17:50:41.385Z,18.80
2018-09-04T17:53:12.439Z,22.17
2018-09-04T17:55:41.898Z,22.83
2018-09-04T17:58:15.167Z,23.60
2018-09-04T18:00:43.520Z,20.80
2018-09-04T18:03:12.234Z,23.63
2018-09-04T18:05:41.060Z,22.07
2018-09-04T18:08:12.660Z,21.40
2018-09-04T18:11:10.010Z,22.67
2018-09-04T18:13:41.188Z,22.27
2018-09-04T18:18:44.633Z,29.13
2018-09-04T18:21:13.656Z,20.30
2018-09-04T18:23:46.570Z,15.00
2018-09-04T18:26:15.601Z,19.20
2018-09-04T18:28:47.559Z,24.87
2018-09-04T18:31:15.766Z,19.20
2018-09-04T18:33:45.557Z,20.07
2018-09-04T18:36:15.030Z,21.80
2018-09-04T18:38:51.635Z,20.93
2018-09-04T18:41:21.301Z,24.27
2018-09-04T18:43:53.335Z,22.70
2018-09-04T18:46:31.739Z,19.17
2018-09-04T18:49:02.623Z,21.17
2018-09-04T18:51:36.525Z,21.10
2018-09-04T18:54:15.136Z,17.77
2018-09-04T18:56:45.685Z,19.60
2018-09-04T18:59:15.653Z,21.30
2018-09-04T19:02:01.476Z,19.17
2018-09-04T19:04:58.598Z,21.20
2018-09-04T19:07:45.129Z,23.07
2018-09-04T19:10:16.112Z,20.73
2018-09-04T19:12:48.534Z,18.30
2018-09-04T19:15:43.433Z,18.20
2018-09-04T19:18:29.401Z,18.73
2018-09-04T19:21:33.338Z,19.63
2018-09-04T19:24:03.932Z,21.13
2018-09-04T19:26:33.102Z,17.83
2018-09-04T19:29:10.285Z,16.97
2018-09-04T19:31:40.399Z,19.90
2018-09-04T19:34:31.252Z,19.83
2018-09-04T19:37:07.252Z,19.57
2018-09-04T19:39:35.750Z,19.87
2018-09-04T19:42:08.792Z,19.60
2018-09-04T19:44:40.255Z,19.80
2018-09-04T19:47:20.925Z,20.03
2018-09-04T19:50:09.764Z,20.13
2018-09-04T19:53:25.859Z,20.00
2018-09-04T19:55:57.673Z,21.60
2018-09-04T19:58:28.579Z,21.47
2018-09-04T20:00:57.764Z,20.83
2018-09-04T20:03:31.824Z,19.37
2018-09-04T20:06:00.911Z,19.93
2018-09-04T20:08:34.323Z,21.37
2018-09-04T20:11:06.350Z,21.13
2018-09-04T20:13:38.542Z,19.40
2018-09-04T20:16:08.398Z,21.00
2018-09-04T20:18:38.880Z,19.37
2018-09-04T20:21:10.179Z,19.00
2018-09-04T20:24:17.012Z,19.03
2018-09-04T20:26:48.846Z,20.37
2018-09-04T20:29:18.960Z,18.40
2018-09-04T20:31:49.572Z,18.07
2018-09-04T20:34:23.906Z,19.37
2018-09-04T20:36:54.128Z,19.83
2018-09-04T20:39:29.894Z,19.43
2018-09-04T20:41:58.853Z,22.07
2018-09-04T20:44:29.224Z,22.27
2018-09-04T20:47:00.082Z,20.17
2018-09-04T20:49:32.621Z,21.40
2018-09-04T20:52:01.402Z,21.30
2018-09-04T20:54:29.792Z,20.50
2018-09-04T20:57:39.097Z,18.97
2018-09-04T21:00:32.867Z,19.97
2018-09-04T21:03:14.756Z,21.43
2018-09-04T21:05:54.211Z,20.47
2018-09-04T21:08:39.999Z,20.10
2018-09-04T21:11:17.376Z,18.63
2018-09-04T21:13:54.576Z,21.03
2018-09-04T21:16:26.655Z,18.53
2018-09-04T21:18:57.187Z,21.50
2018-09-04T21:21:30.101Z,18.43
2018-09-04T21:24:04.048Z,18.33
2018-09-04T21:26:32.735Z,19.63
2018-09-04T21:29:02.301Z,17.70
2018-09-04T21:31:34.976Z,22.47
2018-09-04T21:34:06.477Z,17.80
2018-09-04T21:36:36.861Z,20.87
2018-09-04T21:39:06.763Z,19.57
2018-09-04T21:41:36.962Z,18.63
2018-09-04T21:44:05.383Z,19.87
2018-09-04T21:46:33.542Z,20.67
2018-09-04T21:49:08.366Z,18.00
2018-09-04T21:51:42.667Z,17.93
2018-09-04T21:54:13.644Z,20.23
2018-09-04T21:56:43.332Z,19.57
2018-09-04T21:59:28.506Z,16.87
2018-09-04T22:01:58.838Z,17.07
2018-09-04T22:04:36.085Z,17.10
2018-09-04T22:07:09.508Z,19.03
2018-09-04T22:09:38.279Z,19.63
2018-09-04T22:12:11.782Z,22.00
2018-09-04T22:14:44.571Z,17.43
2018-09-04T22:17:16.328Z,17.47
2018-09-04T22:19:45.571Z,17.60
2018-09-04T22:22:18.523Z,16.57
2018-09-04T22:24:49.710Z,17.47
2018-09-04T22:27:18.402Z,18.37
2018-09-04T22:29:48.083Z,17.33
2018-09-04T22:32:18.008Z,18.33
2018-09-04T22:34:47.714Z,19.70
2018-09-04T22:37:17.244Z,17.47
2018-09-04T22:39:46.570Z,18.57
2018-09-04T22:42:15.764Z,19.33
2018-09-04T22:44:44.901Z,19.73
2018-09-04T22:47:13.871Z,19.33
2018-09-04T22:49:47.720Z,18.67
2018-09-04T22:52:16.438Z,18.80
2018-09-04T22:54:45.587Z,18.93
2018-09-04T22:57:13.561Z,17.13
2018-09-04T22:59:44.393Z,20.67
2018-09-04T23:02:14.152Z,18.50
2018-09-04T23:04:46.030Z,19.47
2018-09-04T23:07:15.404Z,21.53
2018-09-04T23:09:45.377Z,18.43
2018-09-04T23:12:14.897Z,19.40
2018-09-04T23:14:43.613Z,17.53
2018-09-04T23:17:11.813Z,19.43
2018-09-04T23:19:40.087Z,19.37
2018-09-04T23:22:08.283Z,19.90
2018-09-04T23:24:37.561Z,18.40
2018-09-04T23:27:15.599Z,20.30
2018-09-04T23:29:46.272Z,18.83
2018-09-04T23:32:15.255Z,17.97
2018-09-04T23:34:43.448Z,18.60
2018-09-04T23:37:12.493Z,18.57
2018-09-04T23:39:43.307Z,18.70
2018-09-04T23:42:13.277Z,19.87
2018-09-04T23:44:43.032Z,19.47
2018-09-04T23:47:11.011Z,20.37
2018-09-04T23:49:39.116Z,22.17
2018-09-04T23:52:07.638Z,20.93
2018-09-04T23:54:36.814Z,19.73
2018-09-04T23:57:05.503Z,21.63
2018-09-04T23:59:33.616Z,19.40
